Time,TemperatureF,DewpointF,PressureIn,WindDirection,WindDirectionDegrees,WindSpeedMPH,WindSpeedGustMPH,Humidity,HourlyPrecipIn,Conditions,Clouds,dailyrainin,SoftwareType,DateUTC
2013-07-22 00:01:00,78.3,75.7,29.97,North,0,0.0,0.0,92,0.00,CLR,CLR,0.00,WeatherDisplay:10.37,2013-07-22 04:01:00,
2013-07-22 00:02:00,78.3,75.7,29.97,North,0,0.0,0.0,92,0.00,CLR,CLR,0.00,WeatherDisplay:10.37,2013-07-22 04:02:00,
2013-07-22 00:03:00,78.3,75.7,29.97,North,0,0.0,0.0,92,0.00,CLR,CLR,0.00,WeatherDisplay:10.37,2013-07-22 04:03:00,
2013-07-22 00:05:00,78.1,75.6,29.97,North,0,0.0,0.0,92,0.00,CLR,CLR,0.00,WeatherDisplay:10.37,2013-07-22 04:05:00,
2013-07-22 00:10:00,78.1,75.6,29.97,North,0,0.0,0.0,92,0.00,CLR,CLR,0.00,WeatherDisplay:10.37,2013-07-22 04:10:00,
2013-07-22 00:15:00,78.1,75.6,29.97,North,0,0.0,0.0,92,0.00,CLR,CLR,0.00,WeatherDisplay:10.37,2013-07-22 04:15:00,
2013-07-22 00:20:00,78.1,75.6,29.97,North,0,0.0,0.0,92,0.00,CLR,CLR,0.00,WeatherDisplay:10.37,2013-07-22 04:20:00,
2013-07-22 00:25:00,78.1,75.6,29.94,North,0,0.0,0.0,92,0.00,CLR,CLR,0.00,WeatherDisplay:10.37,2013-07-22 04:25:00,
2013-07-22 00:31:00,78.1,75.6,29.94,North,0,0.0,0.0,92,0.00,CLR,CLR,0.00,WeatherDisplay:10.37,2013-07-22 04:31:00,
2013-07-22 00:36:00,78.1,75.6,29.94,North,0,0.0,0.0,92,0.00,CLR,CLR,0.00,WeatherDisplay:10.37,2013-07-22 04:36:00,
2013-07-22 00:41:00,78.1,75.6,29.94,North,0,0.0,0.0,92,0.00,CLR,CLR,0.00,WeatherDisplay:10.37,2013-07-22 04:41:00,
2013-07-22 00:46:00,78.1,75.6,29.94,North,0,0.0,0.0,92,0.00,CLR,CLR,0.00,WeatherDisplay:10.37,2013-07-22 04:46:00,
2013-07-22 00:51:00,78.1,75.6,29.94,North,0,0.0,0.0,92,0.00,CLR,CLR,0.00,WeatherDisplay:10.37,2013-07-22 04:51:00,
2013-07-22 00:56:00,78.1,75.6,29.94,North,0,0.0,0.0,92,0.00,CLR,CLR,0.00,WeatherDisplay:10.37,2013-07-22 04:56:00,
2013-07-22 01:01:00,78.1,75.6,29.94,North,0,0.0,0.0,92,0.00,CLR,CLR,0.00,WeatherDisplay:10.37,2013-07-22 05:01:00,
2013-07-22 01:07:00,77.9,75.4,29.94,North,0,0.0,0.0,92,0.00,CLR,CLR,0.00,WeatherDisplay:10.37,2013-07-22 05:07:00,
2013-07-22 01:12:00,78.1,75.6,29.94,North,0,0.0,0.0,92,0.00,CLR,CLR,0.00,WeatherDisplay:10.37,2013-07-22 05:12:00,
2013-07-22 01:17:00,77.9,75.4,29.94,North,0,0.0,0.0,92,0.00,CLR,CLR,0.00,WeatherDisplay:10.37,2013-07-22 05:17:00,
2013-07-22 01:22:00,77.9,75.4,29.94,North,0,0.0,0.0,92,0.00,CLR,CLR,0.00,WeatherDisplay:10.37,2013-07-22 05:22:00,
2013-07-22 01:27:00,78.1,75.6,29.94,North,0,0.0,0.0,92,0.00,CLR,CLR,0.00,WeatherDisplay:10.37,2013-07-22 05:27:00,
2013-07-22 01:32:00,77.9,75.1,29.94,North,0,0.0,0.0,91,0.00,CLR,CLR,0.00,WeatherDisplay:10.37,2013-07-22 05:32:00,
2013-07-22 01:37:00,77.9,75.1,29.94,North,0,0.0,0.0,91,0.00,CLR,CLR,0.00,WeatherDisplay:10.37,2013-07-22 05:37:00,
2013-07-22 01:42:00,77.9,75.4,29.94,North,0,0.0,0.0,92,0.00,CLR,CLR,0.00,WeatherDisplay:10.37,2013-07-22 05:42:00,
2013-07-22 01:47:00,77.9,75.4,29.94,North,0,0.0,0.0,92,0.00,CLR,CLR,0.00,WeatherDisplay:10.37,2013-07-22 05:47:00,
2013-07-22 01:52:00,77.9,75.4,29.94,North,0,0.0,0.0,92,0.00,CLR,CLR,0.00,WeatherDisplay:10.37,2013-07-22 05:52:00,
2013-07-22 01:58:00,77.9,75.4,29.94,North,0,0.0,0.0,92,0.00,CLR,CLR,0.00,WeatherDisplay:10.37,2013-07-22 05:58:00,
2013-07-22 02:03:00,77.7,75.2,29.94,North,0,0.0,0.0,92,0.00,CLR,CLR,0.00,WeatherDisplay:10.37,2013-07-22 06:03:00,
2013-07-22 02:08:00,77.7,75.2,29.94,North,0,0.0,0.0,92,0.00,CLR,CLR,0.00,WeatherDisplay:10.37,2013-07-22 06:08:00,
2013-07-22 02:13:00,77.7,75.2,29.94,North,0,0.0,0.0,92,0.00,CLR,CLR,0.00,WeatherDisplay:10.37,2013-07-22 06:13:00,
2013-07-22 02:18:00,77.7,75.2,29.94,North,0,0.0,0.0,92,0.00,CLR,CLR,0.00,WeatherDisplay:10.37,2013-07-22 06:18:00,
2013-07-22 02:23:00,77.7,75.2,29.94,North,0,0.0,0.0,92,0.00,CLR,CLR,0.00,WeatherDisplay:10.37,2013-07-22 06:23:00,
2013-07-22 02:29:00,77.7,75.2,29.94,North,0,0.0,0.0,92,0.00,CLR,CLR,0.00,WeatherDisplay:10.37,2013-07-22 06:29:00,
2013-07-22 02:34:00,77.5,75.0,29.94,North,0,0.0,0.0,92,0.00,CLR,CLR,0.00,WeatherDisplay:10.37,2013-07-22 06:34:00,
2013-07-22 02:39:00,77.5,75.0,29.94,North,0,0.0,0.0,92,0.00,CLR,CLR,0.00,WeatherDisplay:10.37,2013-07-22 06:39:00,
2013-07-22 02:44:00,77.7,75.2,29.94,North,0,0.0,0.0,92,0.00,CLR,CLR,0.00,WeatherDisplay:10.37,2013-07-22 06:44:00,
2013-07-22 02:49:00,77.7,75.2,29.94,North,0,0.0,0.0,92,0.00,CLR,CLR,0.00,WeatherDisplay:10.37,2013-07-22 06:49:00,
2013-07-22 02:54:00,77.5,75.0,29.94,North,0,0.0,0.0,92,0.00,CLR,CLR,0.00,WeatherDisplay:10.37,2013-07-22 06:54:00,
2013-07-22 02:59:00,77.5,75.4,29.94,North,0,0.0,0.0,93,0.00,CLR,CLR,0.00,WeatherDisplay:10.37,2013-07-22 06:59:00,
2013-07-22 03:04:00,77.5,75.4,29.94,North,0,0.0,0.0,93,0.00,CLR,CLR,0.00,WeatherDisplay:10.37,2013-07-22 07:04:00,
2013-07-22 03:10:00,77.5,75.4,29.91,North,0,0.0,0.0,93,0.00,CLR,CLR,0.00,WeatherDisplay:10.37,2013-07-22 07:10:00,
2013-07-22 03:15:00,77.5,75.4,29.91,North,0,0.0,0.0,93,0.00,CLR,CLR,0.00,WeatherDisplay:10.37,2013-07-22 07:15:00,
2013-07-22 03:20:00,77.5,75.4,29.91,North,0,0.0,0.0,93,0.00,CLR,CLR,0.00,WeatherDisplay:10.37,2013-07-22 07:20:00,
2013-07-22 03:25:00,77.4,75.2,29.91,North,0,0.0,0.0,93,0.00,CLR,CLR,0.00,WeatherDisplay:10.37,2013-07-22 07:25:00,
2013-07-22 03:30:00,77.4,75.2,29.91,North,0,0.0,0.0,93,0.00,CLR,CLR,0.00,WeatherDisplay:10.37,2013-07-22 07:30:00,
2013-07-22 03:36:00,77.4,75.2,29.91,North,0,0.0,0.0,93,0.00,CLR,CLR,0.00,WeatherDisplay:10.37,2013-07-22 07:36:00,
2013-07-22 03:41:00,77.2,75.0,29.91,North,0,0.0,0.0,93,0.00,CLR,CLR,0.00,WeatherDisplay:10.37,2013-07-22 07:41:00,
2013-07-22 03:46:00,77.2,75.0,29.91,North,0,0.0,0.0,93,0.00,CLR,CLR,0.00,WeatherDisplay:10.37,2013-07-22 07:46:00,
2013-07-22 03:52:00,77.2,75.0,29.91,North,0,0.0,0.0,93,0.00,CLR,CLR,0.00,WeatherDisplay:10.37,2013-07-22 07:52:00,
2013-07-22 03:57:00,77.0,74.8,29.91,North,0,0.0,0.0,93,0.00,CLR,CLR,0.00,WeatherDisplay:10.37,2013-07-22 07:57:00,
2013-07-22 04:02:00,77.0,74.8,29.91,North,0,0.0,0.0,93,0.00,CLR,CLR,0.00,WeatherDisplay:10.37,2013-07-22 08:02:00,
2013-07-22 04:07:00,76.8,75.0,29.91,North,0,0.0,0.0,94,0.00,CLR,CLR,0.00,WeatherDisplay:10.37,2013-07-22 08:07:00,
2013-07-22 04:12:00,76.6,74.8,29.91,North,0,0.0,0.0,94,0.00,CLR,CLR,0.00,WeatherDisplay:10.37,2013-07-22 08:12:00,
2013-07-22 04:17:00,76.6,74.8,29.91,North,0,0.0,0.0,94,0.00,CLR,CLR,0.00,WeatherDisplay:10.37,2013-07-22 08:17:00,
2013-07-22 04:22:00,76.5,74.6,29.91,North,0,0.0,0.0,94,0.00,CLR,CLR,0.00,WeatherDisplay:10.37,2013-07-22 08:22:00,
2013-07-22 04:27:00,76.6,74.8,29.91,North,0,0.0,0.0,94,0.00,CLR,CLR,0.00,WeatherDisplay:10.37,2013-07-22 08:27:00,
2013-07-22 04:32:00,76.5,74.6,29.91,North,0,0.0,0.0,94,0.00,CLR,CLR,0.00,WeatherDisplay:10.37,2013-07-22 08:32:00,
2013-07-22 04:37:00,76.5,74.6,29.91,North,0,0.0,0.0,94,0.00,CLR,CLR,0.00,WeatherDisplay:10.37,2013-07-22 08:37:00,
2013-07-22 04:42:00,76.5,74.6,29.91,North,0,0.0,0.0,94,0.00,CLR,CLR,0.00,WeatherDisplay:10.37,2013-07-22 08:42:00,
2013-07-22 04:48:00,76.6,74.8,29.91,North,0,0.0,0.0,94,0.00,CLR,CLR,0.00,WeatherDisplay:10.37,2013-07-22 08:48:00,
2013-07-22 04:53:00,76.6,74.8,29.91,North,0,0.0,0.0,94,0.00,CLR,CLR,0.00,WeatherDisplay:10.37,2013-07-22 08:53:00,
2013-07-22 04:58:00,76.6,74.8,29.91,North,0,0.0,0.0,94,0.00,CLR,CLR,0.00,WeatherDisplay:10.37,2013-07-22 08:58:00,
2013-07-22 05:03:00,76.6,74.8,29.91,North,0,0.0,0.0,94,0.00,CLR,CLR,0.00,WeatherDisplay:10.37,2013-07-22 09:03:00,
2013-07-22 05:08:00,76.5,74.6,29.91,North,0,0.0,0.0,94,0.00,CLR,CLR,0.00,WeatherDisplay:10.37,2013-07-22 09:08:00,
2013-07-22 05:14:00,76.5,74.6,29.91,North,0,0.0,0.0,94,0.00,CLR,CLR,0.00,WeatherDisplay:10.37,2013-07-22 09:14:00,
2013-07-22 05:19:00,76.5,74.6,29.91,North,0,0.0,0.0,94,0.00,CLR,CLR,0.00,WeatherDisplay:10.37,2013-07-22 09:19:00,
2013-07-22 05:24:00,76.5,74.9,29.91,North,0,0.0,0.0,95,0.00,CLR,CLR,0.00,WeatherDisplay:10.37,2013-07-22 09:24:00,
2013-07-22 05:29:00,76.5,74.6,29.91,North,0,0.0,0.0,94,0.00,CLR,CLR,0.00,WeatherDisplay:10.37,2013-07-22 09:29:00,
2013-07-22 05:35:00,76.5,74.9,29.91,North,0,0.0,0.0,95,0.00,CLR,CLR,0.00,WeatherDisplay:10.37,2013-07-22 09:35:00,
2013-07-22 05:40:00,76.5,74.6,29.91,North,0,0.0,0.0,94,0.00,CLR,CLR,0.00,WeatherDisplay:10.37,2013-07-22 09:40:00,
2013-07-22 05:45:00,76.3,74.4,29.91,North,0,0.0,0.0,94,0.00,CLR,CLR,0.00,WeatherDisplay:10.37,2013-07-22 09:45:00,
2013-07-22 05:50:00,76.3,74.7,29.91,North,0,0.0,0.0,95,0.00,CLR,CLR,0.00,WeatherDisplay:10.37,2013-07-22 09:50:00,
2013-07-22 05:55:00,76.3,74.4,29.91,North,0,0.0,0.0,94,0.00,CLR,CLR,0.00,WeatherDisplay:10.37,2013-07-22 09:55:00,
2013-07-22 06:01:00,76.1,74.6,29.91,North,0,0.0,0.0,95,0.00,CLR,CLR,0.00,WeatherDisplay:10.37,2013-07-22 10:01:00,
2013-07-22 06:06:00,75.9,74.4,29.91,North,0,0.0,0.0,95,0.00,CLR,CLR,0.00,WeatherDisplay:10.37,2013-07-22 10:06:00,
2013-07-22 06:11:00,75.7,74.2,29.91,North,0,0.0,0.0,95,0.00,CLR,CLR,0.00,WeatherDisplay:10.37,2013-07-22 10:11:00,
2013-07-22 06:17:00,75.9,74.4,29.91,North,0,0.0,0.0,95,0.00,CLR,CLR,0.00,WeatherDisplay:10.37,2013-07-22 10:17:00,
2013-07-22 06:22:00,75.9,74.4,29.91,North,0,0.0,0.0,95,0.00,CLR,CLR,0.00,WeatherDisplay:10.37,2013-07-22 10:22:00,
2013-07-22 06:27:00,75.9,74.4,29.91,North,0,0.0,0.0,95,0.00,CLR,CLR,0.00,WeatherDisplay:10.37,2013-07-22 10:27:00,
2013-07-22 06:32:00,75.9,74.4,29.91,North,0,0.0,0.0,95,0.00,CLR,CLR,0.00,WeatherDisplay:10.37,2013-07-22 10:32:00,
2013-07-22 06:38:00,75.9,74.4,29.91,North,0,0.0,0.0,95,0.00,CLR,CLR,0.00,WeatherDisplay:10.37,2013-07-22 10:38:00,
2013-07-22 06:43:00,76.1,74.6,29.91,North,0,0.0,0.0,95,0.00,CLR,CLR,0.00,WeatherDisplay:10.37,2013-07-22 10:43:00,
2013-07-22 06:48:00,76.1,74.6,29.91,North,0,0.0,0.0,95,0.00,CLR,CLR,0.00,WeatherDisplay:10.37,2013-07-22 10:48:00,
2013-07-22 06:53:00,76.5,74.9,29.91,North,0,0.0,0.0,95,0.00,CLR,CLR,0.00,WeatherDisplay:10.37,2013-07-22 10:53:00,
2013-07-22 06:58:00,76.8,75.3,29.91,North,0,0.0,0.0,95,0.00,CLR,CLR,0.00,WeatherDisplay:10.37,2013-07-22 10:58:00,
2013-07-22 07:03:00,77.2,75.3,29.91,North,0,0.0,0.0,94,0.00,CLR,CLR,0.00,WeatherDisplay:10.37,2013-07-22 11:03:00,
2013-07-22 07:08:00,77.4,75.5,29.91,North,0,0.0,0.0,94,0.00,CLR,CLR,0.00,WeatherDisplay:10.37,2013-07-22 11:08:00,
2013-07-22 07:13:00,77.5,75.7,29.91,North,0,0.0,0.0,94,0.00,CLR,CLR,0.00,WeatherDisplay:10.37,2013-07-22 11:13:00,
2013-07-22 07:18:00,77.7,75.9,29.91,North,0,0.0,0.0,94,0.00,CLR,CLR,0.00,WeatherDisplay:10.37,2013-07-22 11:18:00,
2013-07-22 07:23:00,77.9,76.0,29.91,North,0,0.0,0.0,94,0.00,CLR,CLR,0.00,WeatherDisplay:10.37,2013-07-22 11:23:00,
2013-07-22 07:28:00,79.5,77.0,29.91,North,0,0.0,0.0,92,0.00,CLR,CLR,0.00,WeatherDisplay:10.37,2013-07-22 11:28:00,
2013-07-22 07:33:00,80.4,77.5,29.91,North,0,0.0,0.0,91,0.00,CLR,CLR,0.00,WeatherDisplay:10.37,2013-07-22 11:33:00,
2013-07-22 07:39:00,81.0,77.7,29.94,North,0,0.0,0.0,90,0.00,CLR,CLR,0.00,WeatherDisplay:10.37,2013-07-22 11:39:00,
2013-07-22 07:44:00,81.3,78.1,29.94,North,0,0.0,0.0,90,0.00,CLR,CLR,0.00,WeatherDisplay:10.37,2013-07-22 11:44:00,
2013-07-22 07:49:00,81.7,78.1,29.94,North,0,0.0,0.0,89,0.00,CLR,CLR,0.00,WeatherDisplay:10.37,2013-07-22 11:49:00,
2013-07-22 07:54:00,82.9,79.0,29.91,North,0,0.0,0.0,88,0.00,CLR,CLR,0.00,WeatherDisplay:10.37,2013-07-22 11:54:00,
2013-07-22 07:59:00,82.8,78.8,29.91,North,0,0.0,0.0,88,0.00,CLR,CLR,0.00,WeatherDisplay:10.37,2013-07-22 11:59:00,
2013-07-22 08:04:00,81.9,78.0,29.91,North,0,0.0,0.0,88,0.00,CLR,CLR,0.00,WeatherDisplay:10.37,2013-07-22 12:04:00,
2013-07-22 08:09:00,81.7,77.8,29.94,North,0,0.0,0.0,88,0.00,CLR,CLR,0.00,WeatherDisplay:10.37,2013-07-22 12:09:00,
2013-07-22 08:14:00,82.4,78.1,29.94,North,0,0.0,0.0,87,0.00,CLR,CLR,0.00,WeatherDisplay:10.37,2013-07-22 12:14:00,
2013-07-22 08:19:00,82.6,78.0,29.94,North,0,0.0,0.0,86,0.00,CLR,CLR,0.00,WeatherDisplay:10.37,2013-07-22 12:19:00,
2013-07-22 08:24:00,82.9,78.0,29.94,North,0,0.0,0.0,85,0.00,CLR,CLR,0.00,WeatherDisplay:10.37,2013-07-22 12:24:00,
2013-07-22 08:29:00,83.1,78.1,29.94,North,0,0.0,0.0,85,0.00,CLR,CLR,0.00,WeatherDisplay:10.37,2013-07-22 12:29:00,
2013-07-22 08:35:00,83.7,78.7,29.94,North,0,0.0,0.0,85,0.00,CLR,CLR,0.00,WeatherDisplay:10.37,2013-07-22 12:35:00,
2013-07-22 08:40:00,84.4,79.0,29.94,North,0,0.0,0.0,84,0.00,CLR,CLR,0.00,WeatherDisplay:10.37,2013-07-22 12:40:00,
2013-07-22 08:45:00,84.0,78.7,29.94,North,0,0.0,0.0,84,0.00,CLR,CLR,0.00,WeatherDisplay:10.37,2013-07-22 12:45:00,
2013-07-22 08:50:00,84.2,78.8,29.94,North,0,0.0,0.0,84,0.00,CLR,CLR,0.00,WeatherDisplay:10.37,2013-07-22 12:50:00,
2013-07-22 08:55:00,84.4,78.6,29.94,North,0,0.0,0.0,83,0.00,CLR,CLR,0.00,WeatherDisplay:10.37,2013-07-22 12:55:00,
2013-07-22 09:00:00,85.1,79.4,29.94,North,0,0.0,0.0,83,0.00,CLR,CLR,0.00,WeatherDisplay:10.37,2013-07-22 13:00:00,
2013-07-22 09:05:00,85.3,79.2,29.94,North,0,0.0,0.0,82,0.00,CLR,CLR,0.00,WeatherDisplay:10.37,2013-07-22 13:05:00,
2013-07-22 09:11:00,85.1,79.0,29.94,North,0,0.0,0.0,82,0.00,CLR,CLR,0.00,WeatherDisplay:10.37,2013-07-22 13:11:00,
2013-07-22 09:16:00,85.5,79.0,29.94,North,0,0.0,0.0,81,0.00,CLR,CLR,0.00,WeatherDisplay:10.37,2013-07-22 13:16:00,
2013-07-22 09:21:00,85.5,79.3,29.94,North,0,0.0,0.0,82,0.00,CLR,CLR,0.00,WeatherDisplay:10.37,2013-07-22 13:21:00,
2013-07-22 09:26:00,86.2,79.7,29.94,North,0,0.0,0.0,81,0.00,CLR,CLR,0.00,WeatherDisplay:10.37,2013-07-22 13:26:00,
2013-07-22 09:32:00,85.6,79.5,29.94,North,0,0.0,0.0,82,0.00,CLR,CLR,0.00,WeatherDisplay:10.37,2013-07-22 13:32:00,
2013-07-22 09:37:00,85.3,78.4,29.94,North,0,0.0,0.0,80,0.00,CLR,CLR,0.00,WeatherDisplay:10.37,2013-07-22 13:37:00,
2013-07-22 09:42:00,85.3,78.4,29.94,North,0,0.0,0.0,80,0.00,CLR,CLR,0.00,WeatherDisplay:10.37,2013-07-22 13:42:00,
2013-07-22 09:47:00,86.9,80.0,29.94,North,0,0.0,0.0,80,0.00,CLR,CLR,0.00,WeatherDisplay:10.37,2013-07-22 13:47:00,
2013-07-22 09:53:00,87.1,80.2,29.94,North,0,0.0,0.0,80,0.00,CLR,CLR,0.00,WeatherDisplay:10.37,2013-07-22 13:53:00,
2013-07-22 09:58:00,87.1,79.0,29.94,North,0,0.0,0.0,77,0.00,CLR,CLR,0.00,WeatherDisplay:10.37,2013-07-22 13:58:00,
2013-07-22 10:03:00,87.1,79.4,29.94,North,0,0.0,0.0,78,0.00,CLR,CLR,0.00,WeatherDisplay:10.37,2013-07-22 14:03:00,
2013-07-22 10:08:00,87.8,79.7,29.94,North,0,0.0,0.0,77,0.00,CLR,CLR,0.00,WeatherDisplay:10.37,2013-07-22 14:08:00,
2013-07-22 10:13:00,87.1,78.6,29.94,North,0,0.0,0.0,76,0.00,CLR,CLR,0.00,WeatherDisplay:10.37,2013-07-22 14:13:00,
2013-07-22 10:19:00,86.5,78.5,29.94,North,0,0.0,0.0,77,0.00,CLR,CLR,0.00,WeatherDisplay:10.37,2013-07-22 14:19:00,
2013-07-22 10:24:00,86.5,77.7,29.94,North,0,0.0,0.0,75,0.00,CLR,CLR,0.00,WeatherDisplay:10.37,2013-07-22 14:24:00,
2013-07-22 10:29:00,86.2,77.7,29.94,North,0,0.0,0.0,76,0.00,CLR,CLR,0.00,WeatherDisplay:10.37,2013-07-22 14:29:00,
2013-07-22 10:34:00,86.0,77.5,29.94,North,0,0.0,0.0,76,0.00,CLR,CLR,0.00,WeatherDisplay:10.37,2013-07-22 14:34:00,
2013-07-22 10:39:00,86.0,77.9,29.94,North,0,0.0,0.0,77,0.00,CLR,CLR,0.00,WeatherDisplay:10.37,2013-07-22 14:39:00,
2013-07-22 10:45:00,85.5,77.4,29.94,North,0,0.0,0.0,77,0.00,CLR,CLR,0.00,WeatherDisplay:10.37,2013-07-22 14:45:00,
2013-07-22 10:50:00,85.8,77.8,29.94,North,0,0.0,0.0,77,0.00,CLR,CLR,0.00,WeatherDisplay:10.37,2013-07-22 14:50:00,
2013-07-22 10:55:00,85.8,77.8,29.94,North,0,0.0,0.0,77,0.00,CLR,CLR,0.00,WeatherDisplay:10.37,2013-07-22 14:55:00,
2013-07-22 11:00:00,85.5,77.0,29.94,North,0,0.0,0.0,76,0.00,CLR,CLR,0.00,WeatherDisplay:10.37,2013-07-22 15:00:00,
2013-07-22 11:05:00,86.0,77.9,29.94,North,0,0.0,0.0,77,0.00,CLR,CLR,0.00,WeatherDisplay:10.37,2013-07-22 15:05:00,
2013-07-22 11:10:00,85.6,77.2,29.94,North,0,0.0,0.0,76,0.00,CLR,CLR,0.00,WeatherDisplay:10.37,2013-07-22 15:10:00,
2013-07-22 11:16:00,85.8,77.0,29.94,North,0,0.0,0.0,75,0.00,CLR,CLR,0.00,WeatherDisplay:10.37,2013-07-22 15:16:00,
2013-07-22 11:21:00,85.6,76.4,29.94,North,0,0.0,0.0,74,0.00,CLR,CLR,0.00,WeatherDisplay:10.37,2013-07-22 15:21:00,
2013-07-22 11:26:00,85.8,77.0,29.94,North,0,0.0,0.0,75,0.00,CLR,CLR,0.00,WeatherDisplay:10.37,2013-07-22 15:26:00,
2013-07-22 11:31:00,86.0,76.7,29.94,North,0,0.0,0.0,74,0.00,CLR,CLR,0.00,WeatherDisplay:10.37,2013-07-22 15:31:00,
2013-07-22 11:36:00,86.9,78.0,29.94,North,0,0.0,0.0,75,0.00,CLR,CLR,0.00,WeatherDisplay:10.37,2013-07-22 15:36:00,
2013-07-22 11:42:00,86.5,76.4,29.94,North,0,0.0,0.0,72,0.00,CLR,CLR,0.00,WeatherDisplay:10.37,2013-07-22 15:42:00,
2013-07-22 11:47:00,86.5,76.0,29.94,North,0,0.0,0.0,71,0.00,CLR,CLR,0.00,WeatherDisplay:10.37,2013-07-22 15:47:00,
2013-07-22 11:52:00,86.9,77.2,29.94,North,0,0.0,0.0,73,0.00,CLR,CLR,0.00,WeatherDisplay:10.37,2013-07-22 15:52:00,
2013-07-22 11:57:00,86.4,77.1,29.91,North,0,0.0,0.0,74,0.00,CLR,CLR,0.00,WeatherDisplay:10.37,2013-07-22 15:57:00,
2013-07-22 12:02:00,86.4,77.5,29.91,North,0,0.0,0.0,75,0.00,CLR,CLR,0.00,WeatherDisplay:10.37,2013-07-22 16:02:00,
2013-07-22 12:08:00,86.0,76.7,29.91,North,0,0.0,0.0,74,0.00,CLR,CLR,0.00,WeatherDisplay:10.37,2013-07-22 16:08:00,
2013-07-22 12:13:00,86.9,77.6,29.91,North,0,0.0,0.0,74,0.00,CLR,CLR,0.00,WeatherDisplay:10.37,2013-07-22 16:13:00,
2013-07-22 12:18:00,87.1,78.2,29.91,North,0,0.0,0.0,75,0.00,CLR,CLR,0.00,WeatherDisplay:10.37,2013-07-22 16:18:00,
2013-07-22 12:23:00,86.7,77.8,29.91,North,0,0.0,0.0,75,0.00,CLR,CLR,0.00,WeatherDisplay:10.37,2013-07-22 16:23:00,
2013-07-22 12:28:00,86.5,77.7,29.91,North,0,0.0,0.0,75,0.00,CLR,CLR,0.00,WeatherDisplay:10.37,2013-07-22 16:28:00,
2013-07-22 12:33:00,86.9,78.0,29.91,North,0,0.0,0.0,75,0.00,CLR,CLR,0.00,WeatherDisplay:10.37,2013-07-22 16:33:00,
2013-07-22 12:38:00,86.5,77.7,29.91,North,0,0.0,0.0,75,0.00,CLR,CLR,0.00,WeatherDisplay:10.37,2013-07-22 16:38:00,
2013-07-22 12:43:00,87.1,78.2,29.91,North,0,0.0,0.0,75,0.00,CLR,CLR,0.00,WeatherDisplay:10.37,2013-07-22 16:43:00,
2013-07-22 12:48:00,87.1,78.2,29.91,North,0,0.0,0.0,75,0.00,CLR,CLR,0.00,WeatherDisplay:10.37,2013-07-22 16:48:00,
2013-07-22 12:54:00,87.4,78.9,29.91,North,0,0.0,0.0,76,0.00,CLR,CLR,0.00,WeatherDisplay:10.37,2013-07-22 16:54:00,
2013-07-22 12:59:00,87.3,78.4,29.91,North,0,0.0,0.0,75,0.00,CLR,CLR,0.00,WeatherDisplay:10.37,2013-07-22 16:59:00,
2013-07-22 13:04:00,86.7,77.8,29.91,North,0,0.0,0.0,75,0.00,CLR,CLR,0.00,WeatherDisplay:10.37,2013-07-22 17:04:00,
2013-07-22 13:09:00,86.9,78.4,29.91,North,0,0.0,0.0,76,0.00,CLR,CLR,0.00,WeatherDisplay:10.37,2013-07-22 17:09:00,
2013-07-22 13:14:00,86.7,78.2,29.91,North,0,0.0,0.0,76,0.00,CLR,CLR,0.00,WeatherDisplay:10.37,2013-07-22 17:14:00,
2013-07-22 13:19:00,87.1,78.6,29.91,North,0,0.0,0.0,76,0.00,CLR,CLR,0.00,WeatherDisplay:10.37,2013-07-22 17:19:00,
2013-07-22 13:25:00,87.1,78.2,29.91,North,0,0.0,0.0,75,0.00,CLR,CLR,0.00,WeatherDisplay:10.37,2013-07-22 17:25:00,
2013-07-22 13:30:00,87.3,78.8,29.91,North,0,0.0,0.0,76,0.00,CLR,CLR,0.00,WeatherDisplay:10.37,2013-07-22 17:30:00,
2013-07-22 13:35:00,88.0,79.1,29.91,North,0,0.0,0.0,75,0.00,CLR,CLR,0.00,WeatherDisplay:10.37,2013-07-22 17:35:00,
2013-07-22 13:40:00,88.0,78.2,29.91,North,0,0.0,0.0,73,0.00,CLR,CLR,0.00,WeatherDisplay:10.37,2013-07-22 17:40:00,
2013-07-22 13:45:00,87.6,77.5,29.91,North,0,0.0,0.0,72,0.00,CLR,CLR,0.00,WeatherDisplay:10.37,2013-07-22 17:45:00,
2013-07-22 13:50:00,88.0,78.2,29.91,North,0,0.0,0.0,73,0.00,CLR,CLR,0.00,WeatherDisplay:10.37,2013-07-22 17:50:00,
2013-07-22 13:56:00,87.4,76.9,29.91,North,0,0.0,0.0,71,0.00,CLR,CLR,0.00,WeatherDisplay:10.37,2013-07-22 17:56:00,
2013-07-22 14:01:00,87.1,76.5,29.91,North,0,0.0,0.0,71,0.00,CLR,CLR,0.00,WeatherDisplay:10.37,2013-07-22 18:01:00,
2013-07-22 14:06:00,88.2,77.6,29.91,North,0,0.0,0.0,71,0.00,CLR,CLR,0.00,WeatherDisplay:10.37,2013-07-22 18:06:00,
2013-07-22 14:11:00,87.6,77.5,29.91,North,0,0.0,0.0,72,0.00,CLR,CLR,0.00,WeatherDisplay:10.37,2013-07-22 18:11:00,
2013-07-22 14:16:00,87.6,77.9,29.91,North,0,0.0,0.0,73,0.00,CLR,CLR,0.00,WeatherDisplay:10.37,2013-07-22 18:16:00,
2013-07-22 14:22:00,88.3,78.2,29.91,North,0,0.0,0.0,72,0.00,CLR,CLR,0.00,WeatherDisplay:10.37,2013-07-22 18:22:00,
2013-07-22 14:27:00,87.1,76.1,29.91,North,0,0.0,0.0,70,0.00,CLR,CLR,0.00,WeatherDisplay:10.37,2013-07-22 18:27:00,
2013-07-22 14:32:00,87.1,76.5,29.91,North,0,0.0,0.0,71,0.00,CLR,CLR,0.00,WeatherDisplay:10.37,2013-07-22 18:32:00,
2013-07-22 14:37:00,87.1,76.5,29.91,North,0,0.0,0.0,71,0.00,CLR,CLR,0.00,WeatherDisplay:10.37,2013-07-22 18:37:00,
2013-07-22 14:42:00,87.3,77.1,29.91,North,0,0.0,0.0,72,0.00,CLR,CLR,0.00,WeatherDisplay:10.37,2013-07-22 18:42:00,
2013-07-22 14:47:00,87.4,77.3,29.91,North,0,0.0,0.0,72,0.00,CLR,CLR,0.00,WeatherDisplay:10.37,2013-07-22 18:47:00,
2013-07-22 14:52:00,87.6,77.9,29.91,North,0,0.0,0.0,73,0.00,CLR,CLR,0.00,WeatherDisplay:10.37,2013-07-22 18:52:00,
2013-07-22 14:57:00,86.9,76.8,29.88,North,0,0.0,0.0,72,0.00,CLR,CLR,0.00,WeatherDisplay:10.37,2013-07-22 18:57:00,
2013-07-22 15:02:00,88.0,78.2,29.88,North,0,0.0,0.0,73,0.00,CLR,CLR,0.00,WeatherDisplay:10.37,2013-07-22 19:02:00,
2013-07-22 15:07:00,88.3,78.2,29.88,North,0,0.0,0.0,72,0.00,CLR,CLR,0.00,WeatherDisplay:10.37,2013-07-22 19:07:00,
2013-07-22 15:12:00,88.3,77.3,29.88,North,0,0.0,0.0,70,0.00,CLR,CLR,0.00,WeatherDisplay:10.37,2013-07-22 19:12:00,
2013-07-22 15:18:00,88.5,78.3,29.88,North,0,0.0,0.0,72,0.00,CLR,CLR,0.00,WeatherDisplay:10.37,2013-07-22 19:18:00,
2013-07-22 15:23:00,88.7,77.7,29.88,North,0,0.0,0.0,70,0.00,CLR,CLR,0.00,WeatherDisplay:10.37,2013-07-22 19:23:00,
2013-07-22 15:28:00,88.5,77.5,29.88,North,0,0.0,0.0,70,0.00,CLR,CLR,0.00,WeatherDisplay:10.37,2013-07-22 19:28:00,
2013-07-22 15:33:00,87.3,75.8,29.88,North,0,0.0,0.0,69,0.00,CLR,CLR,0.00,WeatherDisplay:10.37,2013-07-22 19:33:00,
2013-07-22 15:39:00,87.6,77.5,29.88,North,0,0.0,0.0,72,0.00,CLR,CLR,0.00,WeatherDisplay:10.37,2013-07-22 19:39:00,
2013-07-22 15:44:00,87.1,76.5,29.88,North,0,0.0,0.0,71,0.00,CLR,CLR,0.00,WeatherDisplay:10.37,2013-07-22 19:44:00,
2013-07-22 15:49:00,86.2,76.5,29.88,North,0,0.0,0.0,73,0.00,CLR,CLR,0.00,WeatherDisplay:10.37,2013-07-22 19:49:00,
2013-07-22 15:54:00,86.7,77.0,29.88,North,0,0.0,0.0,73,0.00,CLR,CLR,0.00,WeatherDisplay:10.37,2013-07-22 19:54:00,
2013-07-22 15:59:00,86.4,76.7,29.88,North,0,0.0,0.0,73,0.00,CLR,CLR,0.00,WeatherDisplay:10.37,2013-07-22 19:59:00,
2013-07-22 16:05:00,86.5,76.9,29.88,North,0,0.0,0.0,73,0.00,CLR,CLR,0.00,WeatherDisplay:10.37,2013-07-22 20:05:00,
2013-07-22 16:10:00,86.7,77.0,29.85,North,0,0.0,0.0,73,0.00,CLR,CLR,0.00,WeatherDisplay:10.37,2013-07-22 20:10:00,
2013-07-22 16:15:00,87.3,77.5,29.85,North,0,0.0,0.0,73,0.00,CLR,CLR,0.00,WeatherDisplay:10.37,2013-07-22 20:15:00,
2013-07-22 16:17:00,87.3,77.5,29.85,North,0,0.0,0.0,73,0.00,CLR,CLR,0.00,WeatherDisplay:10.37,2013-07-22 20:17:00,
2013-07-22 16:19:00,87.1,77.4,29.85,North,0,0.0,0.0,73,0.00,CLR,CLR,0.00,WeatherDisplay:10.37,2013-07-22 20:19:00,
2013-07-22 16:25:00,87.6,77.9,29.85,North,0,0.0,0.0,73,0.00,CLR,CLR,0.00,WeatherDisplay:10.37,2013-07-22 20:25:00,
2013-07-22 16:30:00,87.3,77.5,29.85,North,0,0.0,0.0,73,0.00,CLR,CLR,0.00,WeatherDisplay:10.37,2013-07-22 20:30:00,
2013-07-22 16:35:00,87.1,77.4,29.85,North,0,0.0,0.0,73,0.00,CLR,CLR,0.00,WeatherDisplay:10.37,2013-07-22 20:35:00,
2013-07-22 16:40:00,87.1,76.5,29.85,North,0,0.0,0.0,71,0.00,CLR,CLR,0.00,WeatherDisplay:10.37,2013-07-22 20:40:00,
2013-07-22 16:43:00,87.1,76.5,29.85,North,0,0.0,0.0,71,0.00,CLR,CLR,0.00,WeatherDisplay:10.37,2013-07-22 20:43:00,
2013-07-22 16:48:00,86.9,76.8,29.85,North,0,0.0,0.0,72,0.00,CLR,CLR,0.00,WeatherDisplay:10.37,2013-07-22 20:48:00,
2013-07-22 16:53:00,87.4,77.3,29.85,North,0,0.0,0.0,72,0.00,CLR,CLR,0.00,WeatherDisplay:10.37,2013-07-22 20:53:00,
2013-07-22 16:58:00,87.6,77.9,29.85,North,0,0.0,0.0,73,0.00,CLR,CLR,0.00,WeatherDisplay:10.37,2013-07-22 20:58:00,
2013-07-22 17:04:00,86.4,76.3,29.85,North,0,0.0,0.0,72,0.00,CLR,CLR,0.00,WeatherDisplay:10.37,2013-07-22 21:04:00,
2013-07-22 17:09:00,86.5,76.9,29.85,North,0,0.0,0.0,73,0.00,CLR,CLR,0.00,WeatherDisplay:10.37,2013-07-22 21:09:00,
2013-07-22 17:14:00,86.7,77.4,29.85,North,0,0.0,0.0,74,0.00,CLR,CLR,0.00,WeatherDisplay:10.37,2013-07-22 21:14:00,
2013-07-22 17:19:00,86.2,76.5,29.85,North,0,0.0,0.0,73,0.00,CLR,CLR,0.00,WeatherDisplay:10.37,2013-07-22 21:19:00,
2013-07-22 17:24:00,86.2,76.9,29.85,North,0,0.0,0.0,74,0.00,CLR,CLR,0.00,WeatherDisplay:10.37,2013-07-22 21:24:00,
2013-07-22 17:30:00,86.2,76.5,29.85,North,0,0.0,0.0,73,0.00,CLR,CLR,0.00,WeatherDisplay:10.37,2013-07-22 21:30:00,
2013-07-22 17:35:00,86.0,76.3,29.85,North,0,0.0,0.0,73,0.00,CLR,CLR,0.00,WeatherDisplay:10.37,2013-07-22 21:35:00,
2013-07-22 17:40:00,85.8,76.6,29.85,North,0,0.0,0.0,74,0.00,CLR,CLR,0.00,WeatherDisplay:10.37,2013-07-22 21:40:00,
2013-07-22 17:45:00,85.6,76.4,29.85,North,0,0.0,0.0,74,0.00,CLR,CLR,0.00,WeatherDisplay:10.37,2013-07-22 21:45:00,
2013-07-22 17:50:00,85.1,76.7,29.85,North,0,0.0,0.0,76,0.00,CLR,CLR,0.00,WeatherDisplay:10.37,2013-07-22 21:50:00,
2013-07-22 17:55:00,85.3,76.5,29.85,North,0,0.0,0.0,75,0.00,CLR,CLR,0.00,WeatherDisplay:10.37,2013-07-22 21:55:00,
2013-07-22 18:00:00,84.7,76.3,29.85,North,0,0.0,0.0,76,0.00,CLR,CLR,0.00,WeatherDisplay:10.37,2013-07-22 22:00:00,
2013-07-22 18:05:00,84.7,76.3,29.85,North,0,0.0,0.0,76,0.00,CLR,CLR,0.00,WeatherDisplay:10.37,2013-07-22 22:05:00,
2013-07-22 18:10:00,84.9,76.9,29.83,North,0,0.0,0.0,77,0.00,CLR,CLR,0.00,WeatherDisplay:10.37,2013-07-22 22:10:00,
2013-07-22 18:15:00,84.0,76.0,29.83,North,0,0.0,0.0,77,0.00,CLR,CLR,0.00,WeatherDisplay:10.37,2013-07-22 22:15:00,
2013-07-22 18:20:00,83.7,76.1,29.83,North,0,0.0,0.0,78,0.00,CLR,CLR,0.00,WeatherDisplay:10.37,2013-07-22 22:20:00,
2013-07-22 18:26:00,83.3,75.7,29.83,North,0,0.0,0.0,78,0.00,CLR,CLR,0.00,WeatherDisplay:10.37,2013-07-22 22:26:00,
2013-07-22 18:31:00,83.1,75.5,29.83,North,0,0.0,0.0,78,0.00,CLR,CLR,0.00,WeatherDisplay:10.37,2013-07-22 22:31:00,
2013-07-22 18:36:00,83.3,75.7,29.83,North,0,0.0,0.0,78,0.00,CLR,CLR,0.00,WeatherDisplay:10.37,2013-07-22 22:36:00,
2013-07-22 18:41:00,83.5,75.9,29.83,North,0,0.0,0.0,78,0.00,CLR,CLR,0.00,WeatherDisplay:10.37,2013-07-22 22:41:00,
2013-07-22 18:46:00,83.3,75.7,29.83,North,0,0.0,0.0,78,0.00,CLR,CLR,0.00,WeatherDisplay:10.37,2013-07-22 22:46:00,
2013-07-22 18:51:00,83.1,75.9,29.83,North,0,0.0,0.0,79,0.00,CLR,CLR,0.00,WeatherDisplay:10.37,2013-07-22 22:51:00,
2013-07-22 18:56:00,82.9,75.4,29.83,North,0,0.0,0.0,78,0.00,CLR,CLR,0.00,WeatherDisplay:10.37,2013-07-22 22:56:00,
2013-07-22 19:01:00,83.1,75.5,29.83,North,0,0.0,0.0,78,0.00,CLR,CLR,0.00,WeatherDisplay:10.37,2013-07-22 23:01:00,
2013-07-22 19:07:00,82.8,75.6,29.83,North,0,0.0,0.0,79,0.00,CLR,CLR,0.00,WeatherDisplay:10.37,2013-07-22 23:07:00,
2013-07-22 19:12:00,82.8,75.6,29.83,North,0,0.0,0.0,79,0.00,CLR,CLR,0.00,WeatherDisplay:10.37,2013-07-22 23:12:00,
2013-07-22 19:17:00,82.6,75.4,29.83,North,0,0.0,0.0,79,0.00,CLR,CLR,0.00,WeatherDisplay:10.37,2013-07-22 23:17:00,
2013-07-22 19:23:00,82.4,75.2,29.83,North,0,0.0,0.0,79,0.00,CLR,CLR,0.00,WeatherDisplay:10.37,2013-07-22 23:23:00,
2013-07-22 19:28:00,81.9,75.5,29.83,North,0,0.0,0.0,81,0.00,CLR,CLR,0.00,WeatherDisplay:10.37,2013-07-22 23:28:00,
2013-07-22 19:33:00,81.5,75.5,29.83,North,0,0.0,0.0,82,0.00,CLR,CLR,0.00,WeatherDisplay:10.37,2013-07-22 23:33:00,
2013-07-22 19:38:00,81.0,75.3,29.83,North,0,0.0,0.0,83,0.00,CLR,CLR,0.00,WeatherDisplay:10.37,2013-07-22 23:38:00,
2013-07-22 19:43:00,81.0,75.7,29.83,North,0,0.0,0.0,84,0.00,CLR,CLR,0.00,WeatherDisplay:10.37,2013-07-22 23:43:00,
2013-07-22 19:48:00,80.4,75.8,29.83,North,0,0.0,0.0,86,0.00,CLR,CLR,0.00,WeatherDisplay:10.37,2013-07-22 23:48:00,
2013-07-22 19:53:00,80.4,75.8,29.83,North,0,0.0,0.0,86,0.00,CLR,CLR,0.00,WeatherDisplay:10.37,2013-07-22 23:53:00,
2013-07-22 19:58:00,80.1,75.5,29.83,North,0,0.0,0.0,86,0.00,CLR,CLR,0.00,WeatherDisplay:10.37,2013-07-22 23:58:00,
2013-07-22 20:03:00,80.1,75.8,29.83,North,0,0.0,0.0,87,0.00,CLR,CLR,0.00,WeatherDisplay:10.37,2013-07-23 00:03:00,
2013-07-22 20:08:00,79.9,76.0,29.85,North,0,0.0,0.0,88,0.00,CLR,CLR,0.00,WeatherDisplay:10.37,2013-07-23 00:08:00,
2013-07-22 20:14:00,79.7,75.8,29.85,North,0,0.0,0.0,88,0.00,CLR,CLR,0.00,WeatherDisplay:10.37,2013-07-23 00:14:00,
2013-07-22 20:19:00,79.7,75.8,29.85,North,0,0.0,0.0,88,0.00,CLR,CLR,0.00,WeatherDisplay:10.37,2013-07-23 00:19:00,
2013-07-22 20:24:00,79.5,75.7,29.83,North,0,0.0,0.0,88,0.00,CLR,CLR,0.00,WeatherDisplay:10.37,2013-07-23 00:24:00,
2013-07-22 20:29:00,79.7,76.2,29.83,North,0,0.0,0.0,89,0.00,CLR,CLR,0.00,WeatherDisplay:10.37,2013-07-23 00:29:00,
2013-07-22 20:34:00,79.5,76.0,29.83,North,0,0.0,0.0,89,0.00,CLR,CLR,0.00,WeatherDisplay:10.37,2013-07-23 00:34:00,
2013-07-22 20:39:00,79.5,76.0,29.85,North,0,0.0,0.0,89,0.00,CLR,CLR,0.00,WeatherDisplay:10.37,2013-07-23 00:39:00,
2013-07-22 20:44:00,79.5,76.0,29.85,North,0,0.0,0.0,89,0.00,CLR,CLR,0.00,WeatherDisplay:10.37,2013-07-23 00:44:00,
2013-07-22 20:49:00,79.3,75.8,29.85,North,0,0.0,0.0,89,0.00,CLR,CLR,0.00,WeatherDisplay:10.37,2013-07-23 00:49:00,
2013-07-22 20:55:00,79.5,76.0,29.83,North,0,0.0,0.0,89,0.00,CLR,CLR,0.00,WeatherDisplay:10.37,2013-07-23 00:55:00,
2013-07-22 21:00:00,79.5,76.0,29.83,North,0,0.0,0.0,89,0.00,CLR,CLR,0.00,WeatherDisplay:10.37,2013-07-23 01:00:00,
2013-07-22 21:05:00,79.5,76.0,29.83,North,0,0.0,0.0,89,0.00,CLR,CLR,0.00,WeatherDisplay:10.37,2013-07-23 01:05:00,
2013-07-22 21:10:00,79.5,76.0,29.85,North,0,0.0,0.0,89,0.00,CLR,CLR,0.00,WeatherDisplay:10.37,2013-07-23 01:10:00,
2013-07-22 21:15:00,79.5,76.3,29.85,North,0,0.0,0.0,90,0.00,CLR,CLR,0.00,WeatherDisplay:10.37,2013-07-23 01:15:00,
2013-07-22 21:20:00,79.5,76.3,29.85,North,0,0.0,0.0,90,0.00,CLR,CLR,0.00,WeatherDisplay:10.37,2013-07-23 01:20:00,
2013-07-22 21:25:00,79.3,76.1,29.85,North,0,0.0,0.0,90,0.00,CLR,CLR,0.00,WeatherDisplay:10.37,2013-07-23 01:25:00,
2013-07-22 21:30:00,79.3,76.1,29.85,North,0,0.0,0.0,90,0.00,CLR,CLR,0.00,WeatherDisplay:10.37,2013-07-23 01:30:00,
2013-07-22 21:35:00,79.5,76.3,29.85,North,0,0.0,0.0,90,0.00,CLR,CLR,0.00,WeatherDisplay:10.37,2013-07-23 01:35:00,
2013-07-22 21:41:00,79.5,76.3,29.85,North,0,0.0,0.0,90,0.00,CLR,CLR,0.00,WeatherDisplay:10.37,2013-07-23 01:41:00,
2013-07-22 21:46:00,79.5,76.3,29.85,North,0,0.0,0.0,90,0.00,CLR,CLR,0.00,WeatherDisplay:10.37,2013-07-23 01:46:00,
2013-07-22 21:51:00,79.5,76.3,29.85,North,0,0.0,0.0,90,0.00,CLR,CLR,0.00,WeatherDisplay:10.37,2013-07-23 01:51:00,
2013-07-22 21:56:00,79.3,76.1,29.85,North,0,0.0,0.0,90,0.00,CLR,CLR,0.00,WeatherDisplay:10.37,2013-07-23 01:56:00,
2013-07-22 22:01:00,79.3,79.3,29.85,North,0,0.0,0.0,100,0.00,CLR,CLR,0.00,WeatherDisplay:10.37,2013-07-23 02:01:00,
2013-07-22 22:06:00,79.3,76.5,29.85,North,0,0.0,0.0,91,0.00,CLR,CLR,0.00,WeatherDisplay:10.37,2013-07-23 02:06:00,
2013-07-22 22:12:00,79.5,76.7,29.85,North,0,0.0,0.0,91,0.00,CLR,CLR,0.00,WeatherDisplay:10.37,2013-07-23 02:12:00,
2013-07-22 22:17:00,79.5,76.7,29.85,North,0,0.0,0.0,91,0.00,CLR,CLR,0.00,WeatherDisplay:10.37,2013-07-23 02:17:00,
2013-07-22 22:22:00,79.3,76.5,29.85,North,0,0.0,0.0,91,0.00,CLR,CLR,0.00,WeatherDisplay:10.37,2013-07-23 02:22:00,
2013-07-22 22:27:00,79.3,76.5,29.85,North,0,0.0,0.0,91,0.00,CLR,CLR,0.00,WeatherDisplay:10.37,2013-07-23 02:27:00,
2013-07-22 22:32:00,79.3,76.5,29.85,North,0,0.0,0.0,91,0.00,CLR,CLR,0.00,WeatherDisplay:10.37,2013-07-23 02:32:00,
2013-07-22 22:37:00,79.3,76.5,29.85,North,0,0.0,0.0,91,0.00,CLR,CLR,0.00,WeatherDisplay:10.37,2013-07-23 02:37:00,
2013-07-22 22:43:00,79.3,76.5,29.85,North,0,0.0,0.0,91,0.00,CLR,CLR,0.00,WeatherDisplay:10.37,2013-07-23 02:43:00,
2013-07-22 22:48:00,79.3,76.5,29.85,North,0,0.0,0.0,91,0.00,CLR,CLR,0.00,WeatherDisplay:10.37,2013-07-23 02:48:00,
2013-07-22 22:53:00,79.3,76.5,29.85,North,0,0.0,0.0,91,0.00,CLR,CLR,0.00,WeatherDisplay:10.37,2013-07-23 02:53:00,
2013-07-22 22:58:00,79.3,76.5,29.85,North,0,0.0,0.0,91,0.00,CLR,CLR,0.00,WeatherDisplay:10.37,2013-07-23 02:58:00,
2013-07-22 23:03:00,79.3,76.5,29.85,North,0,0.0,0.0,91,0.00,CLR,CLR,0.00,WeatherDisplay:10.37,2013-07-23 03:03:00,
2013-07-22 23:09:00,79.2,76.3,29.85,North,0,0.0,0.0,91,0.00,CLR,CLR,0.00,WeatherDisplay:10.37,2013-07-23 03:09:00,
2013-07-22 23:14:00,79.3,76.8,29.85,North,0,0.0,0.0,92,0.00,CLR,CLR,0.00,WeatherDisplay:10.37,2013-07-23 03:14:00,
2013-07-22 23:19:00,79.3,76.8,29.85,North,0,0.0,0.0,92,0.00,CLR,CLR,0.00,WeatherDisplay:10.37,2013-07-23 03:19:00,
2013-07-22 23:24:00,79.3,76.8,29.85,North,0,0.0,0.0,92,0.00,CLR,CLR,0.00,WeatherDisplay:10.37,2013-07-23 03:24:00,
2013-07-22 23:29:00,79.2,76.3,29.85,North,0,0.0,0.0,91,0.00,CLR,CLR,0.00,WeatherDisplay:10.37,2013-07-23 03:29:00,
2013-07-22 23:35:00,79.3,76.8,29.85,North,0,0.0,0.0,92,0.00,CLR,CLR,0.00,WeatherDisplay:10.37,2013-07-23 03:35:00,
2013-07-22 23:40:00,79.2,76.3,29.85,North,0,0.0,0.0,91,0.00,CLR,CLR,0.00,WeatherDisplay:10.37,2013-07-23 03:40:00,
2013-07-22 23:45:00,79.2,76.6,29.85,North,0,0.0,0.0,92,0.00,CLR,CLR,0.00,WeatherDisplay:10.37,2013-07-23 03:45:00,
2013-07-22 23:50:00,79.2,76.6,29.85,North,0,0.0,0.0,92,0.00,CLR,CLR,0.00,WeatherDisplay:10.37,2013-07-23 03:50:00,
2013-07-22 23:55:00,79.2,76.6,29.85,North,0,0.0,0.0,92,0.00,CLR,CLR,0.00,WeatherDisplay:10.37,2013-07-23 03:55:00,